sensor_id;sensor_type;location;lat;lon;timestamp;temperature;humidity
13598;DHT22;38563;54.258;12.574;2023-06-22T00:00:40;14.70;99.90
13598;DHT22;38563;54.258;12.574;2023-06-22T00:03:07;14.60;99.90
13598;DHT22;38563;54.258;12.574;2023-06-22T00:05:34;14.70;99.90
13598;DHT22;38563;54.258;12.574;2023-06-22T00:08:03;14.70;99.90
13598;DHT22;38563;54.258;12.574;2023-06-22T00:10:31;14.70;99.90
13598;DHT22;38563;54.258;12.574;2023-06-22T00:12:58;14.70;99.90
13598;DHT22;38563;54.258;12.574;2023-06-22T00:15:26;14.70;99.90
13598;DHT22;38563;54.258;12.574;2023-06-22T00:17:53;14.80;99.90
13598;DHT22;38563;54.258;12.574;2023-06-22T00:20:19;14.80;99.90
13598;DHT22;38563;54.258;12.574;2023-06-22T00:22:46;14.80;99.90
13598;DHT22;38563;54.258;12.574;2023-06-22T00:25:13;14.60;99.90
13598;DHT22;38563;54.258;12.574;2023-06-22T00:27:40;14.60;99.90
13598;DHT22;38563;54.258;12.574;2023-06-22T00:30:08;14.30;99.90
13598;DHT22;38563;54.258;12.574;2023-06-22T00:32:36;14.20;99.90
13598;DHT22;38563;54.258;12.574;2023-06-22T00:35:03;14.00;99.90
13598;DHT22;38563;54.258;12.574;2023-06-22T00:37:30;13.80;99.90
13598;DHT22;38563;54.258;12.574;2023-06-22T00:39:56;13.70;99.90
13598;DHT22;38563;54.258;12.574;2023-06-22T00:42:23;13.70;99.90
13598;DHT22;38563;54.258;12.574;2023-06-22T00:44:50;13.60;99.90
13598;DHT22;38563;54.258;12.574;2023-06-22T00:47:17;13.50;99.90
13598;DHT22;38563;54.258;12.574;2023-06-22T00:49:47;13.50;99.90
13598;DHT22;38563;54.258;12.574;2023-06-22T00:52:14;13.40;99.90
13598;DHT22;38563;54.258;12.574;2023-06-22T00:54:46;13.40;99.90
13598;DHT22;38563;54.258;12.574;2023-06-22T00:57:15;13.50;99.90
13598;DHT22;38563;54.258;12.574;2023-06-22T00:59:42;13.40;99.90
13598;DHT22;38563;54.258;12.574;2023-06-22T01:02:09;13.40;99.90
13598;DHT22;38563;54.258;12.574;2023-06-22T01:04:37;13.30;99.90
13598;DHT22;38563;54.258;12.574;2023-06-22T01:07:13;13.20;99.90
13598;DHT22;38563;54.258;12.574;2023-06-22T01:09:49;13.10;99.90
13598;DHT22;38563;54.258;12.574;2023-06-22T01:12:18;13.10;99.90
13598;DHT22;38563;54.258;12.574;2023-06-22T01:14:50;13.30;99.90
13598;DHT22;38563;54.258;12.574;2023-06-22T01:17:19;13.40;99.90
13598;DHT22;38563;54.258;12.574;2023-06-22T01:19:49;13.40;99.90
13598;DHT22;38563;54.258;12.574;2023-06-22T01:22:24;13.40;99.90
13598;DHT22;38563;54.258;12.574;2023-06-22T01:24:57;13.40;99.90
13598;DHT22;38563;54.258;12.574;2023-06-22T01:27:32;13.50;99.90
13598;DHT22;38563;54.258;12.574;2023-06-22T01:30:05;13.50;99.90
13598;DHT22;38563;54.258;12.574;2023-06-22T01:32:35;13.50;99.90
13598;DHT22;38563;54.258;12.574;2023-06-22T01:35:05;13.50;99.90
13598;DHT22;38563;54.258;12.574;2023-06-22T01:37:34;13.40;99.90
13598;DHT22;38563;54.258;12.574;2023-06-22T01:40:02;13.40;99.90
13598;DHT22;38563;54.258;12.574;2023-06-22T01:42:31;13.40;99.90
13598;DHT22;38563;54.258;12.574;2023-06-22T01:44:59;13.40;99.90
13598;DHT22;38563;54.258;12.574;2023-06-22T01:47:27;13.30;99.90
13598;DHT22;38563;54.258;12.574;2023-06-22T01:49:55;13.30;99.90
13598;DHT22;38563;54.258;12.574;2023-06-22T01:52:22;13.30;99.90
13598;DHT22;38563;54.258;12.574;2023-06-22T01:54:49;13.30;99.90
13598;DHT22;38563;54.258;12.574;2023-06-22T01:57:16;13.20;99.90
13598;DHT22;38563;54.258;12.574;2023-06-22T01:59:48;13.20;99.90
13598;DHT22;38563;54.258;12.574;2023-06-22T02:02:19;13.10;99.90
13598;DHT22;38563;54.258;12.574;2023-06-22T02:04:57;13.10;99.90
13598;DHT22;38563;54.258;12.574;2023-06-22T02:07:29;13.10;99.90
13598;DHT22;38563;54.258;12.574;2023-06-22T02:10:02;13.20;99.90
13598;DHT22;38563;54.258;12.574;2023-06-22T02:12:31;13.30;99.90
13598;DHT22;38563;54.258;12.574;2023-06-22T02:14:59;13.30;99.90
13598;DHT22;38563;54.258;12.574;2023-06-22T02:17:27;13.40;99.90
13598;DHT22;38563;54.258;12.574;2023-06-22T02:19:55;13.40;99.90
13598;DHT22;38563;54.258;12.574;2023-06-22T02:22:22;13.40;99.90
13598;DHT22;38563;54.258;12.574;2023-06-22T02:24:49;13.40;99.90
13598;DHT22;38563;54.258;12.574;2023-06-22T02:27:16;13.40;99.90
13598;DHT22;38563;54.258;12.574;2023-06-22T02:29:42;13.50;99.90
13598;DHT22;38563;54.258;12.574;2023-06-22T02:32:09;13.60;99.90
13598;DHT22;38563;54.258;12.574;2023-06-22T02:34:36;13.70;99.90
13598;DHT22;38563;54.258;12.574;2023-06-22T02:37:04;13.70;99.90
13598;DHT22;38563;54.258;12.574;2023-06-22T02:39:31;13.60;99.90
13598;DHT22;38563;54.258;12.574;2023-06-22T02:41:58;13.30;99.90
13598;DHT22;38563;54.258;12.574;2023-06-22T02:44:25;13.10;99.90
13598;DHT22;38563;54.258;12.574;2023-06-22T02:46:51;13.00;99.90
13598;DHT22;38563;54.258;12.574;2023-06-22T02:49:20;12.90;99.90
13598;DHT22;38563;54.258;12.574;2023-06-22T02:51:47;12.90;99.90
13598;DHT22;38563;54.258;12.574;2023-06-22T02:54:18;12.90;99.90
13598;DHT22;38563;54.258;12.574;2023-06-22T02:56:48;12.90;99.90
13598;DHT22;38563;54.258;12.574;2023-06-22T02:59:16;13.00;99.90
13598;DHT22;38563;54.258;12.574;2023-06-22T03:01:44;13.00;99.90
13598;DHT22;38563;54.258;12.574;2023-06-22T03:04:19;13.10;99.90
13598;DHT22;38563;54.258;12.574;2023-06-22T03:06:46;13.10;99.90
13598;DHT22;38563;54.258;12.574;2023-06-22T03:09:16;13.10;99.90
13598;DHT22;38563;54.258;12.574;2023-06-22T03:11:45;13.20;99.90
13598;DHT22;38563;54.258;12.574;2023-06-22T03:14:12;13.40;99.90
13598;DHT22;38563;54.258;12.574;2023-06-22T03:16:38;13.50;99.90
13598;DHT22;38563;54.258;12.574;2023-06-22T03:19:06;13.60;99.90
13598;DHT22;38563;54.258;12.574;2023-06-22T03:21:33;13.50;99.90
13598;DHT22;38563;54.258;12.574;2023-06-22T03:24:00;13.60;99.90
13598;DHT22;38563;54.258;12.574;2023-06-22T03:26:26;13.70;99.90
13598;DHT22;38563;54.258;12.574;2023-06-22T03:28:54;13.80;99.90
13598;DHT22;38563;54.258;12.574;2023-06-22T03:31:21;14.00;99.90
13598;DHT22;38563;54.258;12.574;2023-06-22T03:33:48;14.10;99.90
13598;DHT22;38563;54.258;12.574;2023-06-22T03:36:16;14.20;99.90
13598;DHT22;38563;54.258;12.574;2023-06-22T03:38:44;14.30;99.90
13598;DHT22;38563;54.258;12.574;2023-06-22T03:41:11;14.40;99.90
13598;DHT22;38563;54.258;12.574;2023-06-22T03:43:39;14.50;99.90
13598;DHT22;38563;54.258;12.574;2023-06-22T03:46:07;14.50;99.90
13598;DHT22;38563;54.258;12.574;2023-06-22T03:48:34;14.60;99.90
13598;DHT22;38563;54.258;12.574;2023-06-22T03:51:01;14.60;99.90
13598;DHT22;38563;54.258;12.574;2023-06-22T03:53:29;14.70;99.90
13598;DHT22;38563;54.258;12.574;2023-06-22T03:55:56;14.80;99.90
13598;DHT22;38563;54.258;12.574;2023-06-22T03:58:22;14.80;99.90
13598;DHT22;38563;54.258;12.574;2023-06-22T04:00:51;14.80;99.90
13598;DHT22;38563;54.258;12.574;2023-06-22T04:03:19;15.00;99.90
13598;DHT22;38563;54.258;12.574;2023-06-22T04:05:46;15.10;99.90
13598;DHT22;38563;54.258;12.574;2023-06-22T04:08:14;15.00;99.90
13598;DHT22;38563;54.258;12.574;2023-06-22T04:10:41;15.00;99.90
13598;DHT22;38563;54.258;12.574;2023-06-22T04:13:07;14.90;99.90
13598;DHT22;38563;54.258;12.574;2023-06-22T04:15:34;14.90;99.90
13598;DHT22;38563;54.258;12.574;2023-06-22T04:18:01;14.90;99.90
13598;DHT22;38563;54.258;12.574;2023-06-22T04:20:30;15.00;99.90
13598;DHT22;38563;54.258;12.574;2023-06-22T04:22:57;15.00;99.90
13598;DHT22;38563;54.258;12.574;2023-06-22T04:25:23;15.10;99.90
13598;DHT22;38563;54.258;12.574;2023-06-22T04:27:50;15.20;99.90
13598;DHT22;38563;54.258;12.574;2023-06-22T04:30:17;15.30;99.90
13598;DHT22;38563;54.258;12.574;2023-06-22T04:32:44;15.40;99.90
13598;DHT22;38563;54.258;12.574;2023-06-22T04:35:11;15.50;99.90
13598;DHT22;38563;54.258;12.574;2023-06-22T04:37:40;15.60;99.90
13598;DHT22;38563;54.258;12.574;2023-06-22T04:40:07;15.70;99.90
13598;DHT22;38563;54.258;12.574;2023-06-22T04:42:37;15.70;99.90
13598;DHT22;38563;54.258;12.574;2023-06-22T04:45:05;15.80;99.90
13598;DHT22;38563;54.258;12.574;2023-06-22T04:47:31;15.80;99.90
13598;DHT22;38563;54.258;12.574;2023-06-22T04:49:58;15.80;99.90
13598;DHT22;38563;54.258;12.574;2023-06-22T04:52:25;15.80;99.90
13598;DHT22;38563;54.258;12.574;2023-06-22T04:54:53;15.90;99.90
13598;DHT22;38563;54.258;12.574;2023-06-22T04:57:25;16.00;99.90
13598;DHT22;38563;54.258;12.574;2023-06-22T04:59:58;16.10;99.90
13598;DHT22;38563;54.258;12.574;2023-06-22T05:02:32;16.30;99.90
13598;DHT22;38563;54.258;12.574;2023-06-22T05:04:59;16.40;99.90
13598;DHT22;38563;54.258;12.574;2023-06-22T05:07:25;16.60;99.90
13598;DHT22;38563;54.258;12.574;2023-06-22T05:09:53;16.80;99.90
13598;DHT22;38563;54.258;12.574;2023-06-22T05:12:20;17.00;99.90
13598;DHT22;38563;54.258;12.574;2023-06-22T05:14:47;17.10;99.90
13598;DHT22;38563;54.258;12.574;2023-06-22T05:17:14;17.20;99.90
13598;DHT22;38563;54.258;12.574;2023-06-22T05:19:44;17.30;99.90
13598;DHT22;38563;54.258;12.574;2023-06-22T05:22:14;17.40;99.90
13598;DHT22;38563;54.258;12.574;2023-06-22T05:24:41;17.50;99.90
13598;DHT22;38563;54.258;12.574;2023-06-22T05:27:09;17.60;99.90
13598;DHT22;38563;54.258;12.574;2023-06-22T05:29:36;17.70;99.90
13598;DHT22;38563;54.258;12.574;2023-06-22T05:32:03;17.80;99.90
13598;DHT22;38563;54.258;12.574;2023-06-22T05:34:30;17.90;99.90
13598;DHT22;38563;54.258;12.574;2023-06-22T05:36:57;18.00;99.90
13598;DHT22;38563;54.258;12.574;2023-06-22T05:39:24;18.00;99.90
13598;DHT22;38563;54.258;12.574;2023-06-22T05:41:51;18.00;99.90
13598;DHT22;38563;54.258;12.574;2023-06-22T05:44:19;18.10;99.90
13598;DHT22;38563;54.258;12.574;2023-06-22T05:46:46;18.20;99.90
13598;DHT22;38563;54.258;12.574;2023-06-22T05:49:14;18.40;99.90
13598;DHT22;38563;54.258;12.574;2023-06-22T05:51:41;18.40;99.90
13598;DHT22;38563;54.258;12.574;2023-06-22T05:54:08;18.60;99.90
13598;DHT22;38563;54.258;12.574;2023-06-22T05:56:35;18.60;99.90
13598;DHT22;38563;54.258;12.574;2023-06-22T05:59:02;18.70;99.90
13598;DHT22;38563;54.258;12.574;2023-06-22T06:01:30;18.80;99.90
13598;DHT22;38563;54.258;12.574;2023-06-22T06:04:01;18.80;99.90
13598;DHT22;38563;54.258;12.574;2023-06-22T06:06:29;18.90;99.90
13598;DHT22;38563;54.258;12.574;2023-06-22T06:08:56;19.00;99.90
13598;DHT22;38563;54.258;12.574;2023-06-22T06:11:24;19.00;99.90
13598;DHT22;38563;54.258;12.574;2023-06-22T06:13:51;19.10;99.90
13598;DHT22;38563;54.258;12.574;2023-06-22T06:16:18;19.20;99.90
13598;DHT22;38563;54.258;12.574;2023-06-22T06:18:46;19.30;99.90
13598;DHT22;38563;54.258;12.574;2023-06-22T06:21:14;19.40;99.90
13598;DHT22;38563;54.258;12.574;2023-06-22T06:23:40;19.50;99.90
13598;DHT22;38563;54.258;12.574;2023-06-22T06:26:07;19.70;99.90
13598;DHT22;38563;54.258;12.574;2023-06-22T06:28:34;19.70;99.90
13598;DHT22;38563;54.258;12.574;2023-06-22T06:31:01;19.80;99.90
13598;DHT22;38563;54.258;12.574;2023-06-22T06:33:28;20.00;99.90
13598;DHT22;38563;54.258;12.574;2023-06-22T06:35:56;20.10;99.90
13598;DHT22;38563;54.258;12.574;2023-06-22T06:38:23;20.30;99.90
13598;DHT22;38563;54.258;12.574;2023-06-22T06:40:50;20.30;99.90
13598;DHT22;38563;54.258;12.574;2023-06-22T06:43:17;20.30;99.90
13598;DHT22;38563;54.258;12.574;2023-06-22T06:45:44;20.40;99.90
13598;DHT22;38563;54.258;12.574;2023-06-22T06:48:11;20.50;99.90
13598;DHT22;38563;54.258;12.574;2023-06-22T06:50:37;20.70;99.90
13598;DHT22;38563;54.258;12.574;2023-06-22T06:53:05;20.80;99.90
13598;DHT22;38563;54.258;12.574;2023-06-22T06:55:32;20.90;99.90
13598;DHT22;38563;54.258;12.574;2023-06-22T06:57:59;21.00;99.90
13598;DHT22;38563;54.258;12.574;2023-06-22T07:00:26;21.00;99.90
13598;DHT22;38563;54.258;12.574;2023-06-22T07:02:53;21.20;99.90
13598;DHT22;38563;54.258;12.574;2023-06-22T07:05:20;21.20;99.90
13598;DHT22;38563;54.258;12.574;2023-06-22T07:07:46;21.10;99.90
13598;DHT22;38563;54.258;12.574;2023-06-22T07:10:16;21.20;99.90
13598;DHT22;38563;54.258;12.574;2023-06-22T07:12:42;21.20;99.90
13598;DHT22;38563;54.258;12.574;2023-06-22T07:15:10;21.40;99.90
13598;DHT22;38563;54.258;12.574;2023-06-22T07:17:38;21.60;99.90
13598;DHT22;38563;54.258;12.574;2023-06-22T07:20:07;21.60;99.90
13598;DHT22;38563;54.258;12.574;2023-06-22T07:22:35;21.50;99.90
13598;DHT22;38563;54.258;12.574;2023-06-22T07:25:03;21.80;99.90
13598;DHT22;38563;54.258;12.574;2023-06-22T07:27:36;21.90;99.90
13598;DHT22;38563;54.258;12.574;2023-06-22T07:30:05;22.00;99.90
13598;DHT22;38563;54.258;12.574;2023-06-22T07:32:32;22.10;99.90
13598;DHT22;38563;54.258;12.574;2023-06-22T07:34:59;22.30;99.90
13598;DHT22;38563;54.258;12.574;2023-06-22T07:37:27;22.30;99.90
13598;DHT22;38563;54.258;12.574;2023-06-22T07:39:54;22.30;99.90
13598;DHT22;38563;54.258;12.574;2023-06-22T07:42:24;22.40;99.90
13598;DHT22;38563;54.258;12.574;2023-06-22T07:44:52;22.60;99.90
13598;DHT22;38563;54.258;12.574;2023-06-22T07:47:19;22.60;99.90
13598;DHT22;38563;54.258;12.574;2023-06-22T07:49:46;22.70;99.90
13598;DHT22;38563;54.258;12.574;2023-06-22T07:52:12;22.50;99.90
13598;DHT22;38563;54.258;12.574;2023-06-22T07:54:39;22.40;99.90
13598;DHT22;38563;54.258;12.574;2023-06-22T07:57:06;22.60;99.90
13598;DHT22;38563;54.258;12.574;2023-06-22T07:59:33;23.10;99.90
13598;DHT22;38563;54.258;12.574;2023-06-22T08:02:01;24.10;99.90
13598;DHT22;38563;54.258;12.574;2023-06-22T08:04:28;24.80;99.90
13598;DHT22;38563;54.258;12.574;2023-06-22T08:06:56;25.10;99.90
13598;DHT22;38563;54.258;12.574;2023-06-22T08:09:23;25.00;99.90
13598;DHT22;38563;54.258;12.574;2023-06-22T08:11:49;24.80;99.90
13598;DHT22;38563;54.258;12.574;2023-06-22T08:14:16;25.10;99.90
13598;DHT22;38563;54.258;12.574;2023-06-22T08:16:43;25.00;99.90
13598;DHT22;38563;54.258;12.574;2023-06-22T08:19:11;24.50;99.90
13598;DHT22;38563;54.258;12.574;2023-06-22T08:21:38;24.40;99.90
13598;DHT22;38563;54.258;12.574;2023-06-22T08:24:05;24.00;99.90
13598;DHT22;38563;54.258;12.574;2023-06-22T08:26:32;23.90;99.90
13598;DHT22;38563;54.258;12.574;2023-06-22T08:29:02;24.70;99.90
13598;DHT22;38563;54.258;12.574;2023-06-22T08:31:28;25.30;99.90
13598;DHT22;38563;54.258;12.574;2023-06-22T08:33:55;25.00;99.90
13598;DHT22;38563;54.258;12.574;2023-06-22T08:36:23;25.50;99.90
13598;DHT22;38563;54.258;12.574;2023-06-22T08:38:51;25.90;99.90
13598;DHT22;38563;54.258;12.574;2023-06-22T08:41:17;25.90;99.90
13598;DHT22;38563;54.258;12.574;2023-06-22T08:43:44;25.90;99.90
13598;DHT22;38563;54.258;12.574;2023-06-22T08:46:11;26.70;99.90
13598;DHT22;38563;54.258;12.574;2023-06-22T08:48:38;26.80;99.90
13598;DHT22;38563;54.258;12.574;2023-06-22T08:51:04;26.80;99.90
13598;DHT22;38563;54.258;12.574;2023-06-22T08:53:32;26.80;99.90
13598;DHT22;38563;54.258;12.574;2023-06-22T08:56:00;26.90;99.90
13598;DHT22;38563;54.258;12.574;2023-06-22T08:58:27;27.30;99.90
13598;DHT22;38563;54.258;12.574;2023-06-22T09:00:54;27.30;99.90
13598;DHT22;38563;54.258;12.574;2023-06-22T09:03:20;27.30;99.90
13598;DHT22;38563;54.258;12.574;2023-06-22T09:16:26;26.70;99.90
13598;DHT22;38563;54.258;12.574;2023-06-22T09:18:53;26.50;99.90
13598;DHT22;38563;54.258;12.574;2023-06-22T09:21:20;26.20;99.90
13598;DHT22;38563;54.258;12.574;2023-06-22T09:23:47;26.50;99.90
13598;DHT22;38563;54.258;12.574;2023-06-22T09:26:16;26.60;99.90
13598;DHT22;38563;54.258;12.574;2023-06-22T09:28:43;26.80;99.90
13598;DHT22;38563;54.258;12.574;2023-06-22T09:31:10;27.00;99.90
13598;DHT22;38563;54.258;12.574;2023-06-22T09:33:40;27.00;99.90
13598;DHT22;38563;54.258;12.574;2023-06-22T09:36:07;27.00;99.90
13598;DHT22;38563;54.258;12.574;2023-06-22T09:38:34;26.90;99.90
13598;DHT22;38563;54.258;12.574;2023-06-22T09:41:01;26.80;99.90
13598;DHT22;38563;54.258;12.574;2023-06-22T09:43:28;26.70;99.90
13598;DHT22;38563;54.258;12.574;2023-06-22T09:45:55;26.80;99.90
13598;DHT22;38563;54.258;12.574;2023-06-22T09:48:22;26.70;99.90
13598;DHT22;38563;54.258;12.574;2023-06-22T09:50:50;26.60;99.90
13598;DHT22;38563;54.258;12.574;2023-06-22T09:53:16;26.90;99.90
13598;DHT22;38563;54.258;12.574;2023-06-22T09:55:43;27.10;99.90
13598;DHT22;38563;54.258;12.574;2023-06-22T09:58:10;26.90;99.90
13598;DHT22;38563;54.258;12.574;2023-06-22T10:00:37;26.90;99.90
13598;DHT22;38563;54.258;12.574;2023-06-22T10:03:03;26.70;99.90
13598;DHT22;38563;54.258;12.574;2023-06-22T10:05:30;26.90;99.90
13598;DHT22;38563;54.258;12.574;2023-06-22T10:07:58;27.00;99.90
13598;DHT22;38563;54.258;12.574;2023-06-22T10:10:25;27.20;99.90
13598;DHT22;38563;54.258;12.574;2023-06-22T10:12:56;27.60;99.90
13598;DHT22;38563;54.258;12.574;2023-06-22T10:15:23;27.60;99.90
13598;DHT22;38563;54.258;12.574;2023-06-22T10:17:50;27.30;99.90
13598;DHT22;38563;54.258;12.574;2023-06-22T10:20:16;27.30;99.90
13598;DHT22;38563;54.258;12.574;2023-06-22T10:22:44;27.30;99.90
13598;DHT22;38563;54.258;12.574;2023-06-22T10:25:13;27.20;99.90
13598;DHT22;38563;54.258;12.574;2023-06-22T10:27:40;27.30;99.90
13598;DHT22;38563;54.258;12.574;2023-06-22T10:30:08;27.20;99.90
13598;DHT22;38563;54.258;12.574;2023-06-22T10:32:35;27.00;99.90
13598;DHT22;38563;54.258;12.574;2023-06-22T10:35:02;27.30;99.90
13598;DHT22;38563;54.258;12.574;2023-06-22T10:37:29;27.40;99.90
13598;DHT22;38563;54.258;12.574;2023-06-22T10:39:55;27.30;99.90
13598;DHT22;38563;54.258;12.574;2023-06-22T10:42:24;27.50;99.90
13598;DHT22;38563;54.258;12.574;2023-06-22T10:44:50;27.50;99.90
13598;DHT22;38563;54.258;12.574;2023-06-22T10:47:17;27.50;99.90
13598;DHT22;38563;54.258;12.574;2023-06-22T10:49:44;27.10;99.90
13598;DHT22;38563;54.258;12.574;2023-06-22T10:52:11;27.20;99.90
13598;DHT22;38563;54.258;12.574;2023-06-22T10:54:38;27.30;99.90
13598;DHT22;38563;54.258;12.574;2023-06-22T10:57:05;27.50;99.90
13598;DHT22;38563;54.258;12.574;2023-06-22T10:59:33;27.40;99.90
13598;DHT22;38563;54.258;12.574;2023-06-22T11:02:00;27.40;99.90
13598;DHT22;38563;54.258;12.574;2023-06-22T11:04:27;27.20;99.90
13598;DHT22;38563;54.258;12.574;2023-06-22T11:06:54;27.40;99.90
13598;DHT22;38563;54.258;12.574;2023-06-22T11:09:22;27.20;99.90
13598;DHT22;38563;54.258;12.574;2023-06-22T11:11:49;27.00;99.90
13598;DHT22;38563;54.258;12.574;2023-06-22T11:14:18;27.00;99.90
13598;DHT22;38563;54.258;12.574;2023-06-22T11:16:46;27.00;99.90
13598;DHT22;38563;54.258;12.574;2023-06-22T11:19:14;27.50;99.90
13598;DHT22;38563;54.258;12.574;2023-06-22T11:21:41;27.60;99.90
13598;DHT22;38563;54.258;12.574;2023-06-22T11:24:08;27.80;99.90
13598;DHT22;38563;54.258;12.574;2023-06-22T11:26:35;28.00;99.90
13598;DHT22;38563;54.258;12.574;2023-06-22T11:29:02;27.70;99.90
13598;DHT22;38563;54.258;12.574;2023-06-22T11:31:30;27.50;99.90
13598;DHT22;38563;54.258;12.574;2023-06-22T11:33:58;27.30;99.90
13598;DHT22;38563;54.258;12.574;2023-06-22T11:36:25;27.10;99.90
13598;DHT22;38563;54.258;12.574;2023-06-22T11:38:52;27.00;99.90
13598;DHT22;38563;54.258;12.574;2023-06-22T11:41:19;27.10;99.90
13598;DHT22;38563;54.258;12.574;2023-06-22T11:43:46;27.40;99.90
13598;DHT22;38563;54.258;12.574;2023-06-22T11:46:13;27.50;99.90
13598;DHT22;38563;54.258;12.574;2023-06-22T11:48:39;27.80;99.90
13598;DHT22;38563;54.258;12.574;2023-06-22T11:51:07;27.70;99.90
13598;DHT22;38563;54.258;12.574;2023-06-22T11:53:35;27.60;99.90
13598;DHT22;38563;54.258;12.574;2023-06-22T11:56:01;27.50;99.90
13598;DHT22;38563;54.258;12.574;2023-06-22T11:58:28;27.60;99.90
13598;DHT22;38563;54.258;12.574;2023-06-22T12:00:55;27.60;99.90
13598;DHT22;38563;54.258;12.574;2023-06-22T12:03:21;27.70;99.90
13598;DHT22;38563;54.258;12.574;2023-06-22T12:05:49;27.90;99.90
13598;DHT22;38563;54.258;12.574;2023-06-22T12:08:18;28.00;99.90
13598;DHT22;38563;54.258;12.574;2023-06-22T12:10:45;28.00;99.90
13598;DHT22;38563;54.258;12.574;2023-06-22T12:13:11;28.20;99.90
13598;DHT22;38563;54.258;12.574;2023-06-22T12:15:38;28.00;99.90
13598;DHT22;38563;54.258;12.574;2023-06-22T12:18:05;27.90;99.90
13598;DHT22;38563;54.258;12.574;2023-06-22T12:20:32;27.90;99.90
13598;DHT22;38563;54.258;12.574;2023-06-22T12:22:58;27.70;99.90
13598;DHT22;38563;54.258;12.574;2023-06-22T12:25:26;27.90;99.90
13598;DHT22;38563;54.258;12.574;2023-06-22T12:27:53;28.20;99.90
13598;DHT22;38563;54.258;12.574;2023-06-22T12:30:20;28.20;99.90
13598;DHT22;38563;54.258;12.574;2023-06-22T12:32:47;28.40;99.90
13598;DHT22;38563;54.258;12.574;2023-06-22T12:35:15;28.40;99.90
13598;DHT22;38563;54.258;12.574;2023-06-22T12:37:42;28.60;99.90
13598;DHT22;38563;54.258;12.574;2023-06-22T12:40:10;28.60;99.90
13598;DHT22;38563;54.258;12.574;2023-06-22T12:42:38;28.50;99.90
13598;DHT22;38563;54.258;12.574;2023-06-22T12:45:05;28.70;99.90
13598;DHT22;38563;54.258;12.574;2023-06-22T12:47:32;28.90;99.90
13598;DHT22;38563;54.258;12.574;2023-06-22T12:49:59;28.80;99.90
13598;DHT22;38563;54.258;12.574;2023-06-22T12:52:26;28.70;99.90
13598;DHT22;38563;54.258;12.574;2023-06-22T12:54:53;28.70;99.90
13598;DHT22;38563;54.258;12.574;2023-06-22T12:57:19;28.80;99.90
13598;DHT22;38563;54.258;12.574;2023-06-22T12:59:47;28.60;99.90
13598;DHT22;38563;54.258;12.574;2023-06-22T13:02:14;28.50;99.90
13598;DHT22;38563;54.258;12.574;2023-06-22T13:04:41;28.60;99.90
13598;DHT22;38563;54.258;12.574;2023-06-22T13:07:08;29.10;99.90
13598;DHT22;38563;54.258;12.574;2023-06-22T13:09:36;29.00;99.90
13598;DHT22;38563;54.258;12.574;2023-06-22T13:12:03;28.90;99.90
13598;DHT22;38563;54.258;12.574;2023-06-22T13:14:30;28.80;99.90
13598;DHT22;38563;54.258;12.574;2023-06-22T13:16:58;28.70;99.90
13598;DHT22;38563;54.258;12.574;2023-06-22T13:19:25;28.80;99.90
13598;DHT22;38563;54.258;12.574;2023-06-22T13:21:54;29.20;99.90
13598;DHT22;38563;54.258;12.574;2023-06-22T13:24:21;29.50;99.90
13598;DHT22;38563;54.258;12.574;2023-06-22T13:26:47;29.30;99.90
13598;DHT22;38563;54.258;12.574;2023-06-22T13:29:14;29.60;99.90
13598;DHT22;38563;54.258;12.574;2023-06-22T13:31:41;29.60;99.90
13598;DHT22;38563;54.258;12.574;2023-06-22T13:34:09;29.70;99.90
13598;DHT22;38563;54.258;12.574;2023-06-22T13:36:35;29.90;99.90
13598;DHT22;38563;54.258;12.574;2023-06-22T13:39:02;30.20;99.90
13598;DHT22;38563;54.258;12.574;2023-06-22T13:41:29;29.70;99.90
13598;DHT22;38563;54.258;12.574;2023-06-22T13:43:56;29.70;99.90
13598;DHT22;38563;54.258;12.574;2023-06-22T13:46:22;29.70;99.90
13598;DHT22;38563;54.258;12.574;2023-06-22T13:48:49;30.10;99.90
13598;DHT22;38563;54.258;12.574;2023-06-22T13:51:17;30.20;99.90
13598;DHT22;38563;54.258;12.574;2023-06-22T13:53:44;30.70;99.90
13598;DHT22;38563;54.258;12.574;2023-06-22T13:56:10;30.20;99.90
13598;DHT22;38563;54.258;12.574;2023-06-22T13:58:37;29.80;99.90
13598;DHT22;38563;54.258;12.574;2023-06-22T14:01:04;30.20;99.90
13598;DHT22;38563;54.258;12.574;2023-06-22T14:03:31;30.30;99.90
13598;DHT22;38563;54.258;12.574;2023-06-22T14:05:57;30.00;99.90
13598;DHT22;38563;54.258;12.574;2023-06-22T14:08:25;30.00;99.90
13598;DHT22;38563;54.258;12.574;2023-06-22T14:10:52;29.90;99.90
13598;DHT22;38563;54.258;12.574;2023-06-22T14:13:20;30.00;99.90
13598;DHT22;38563;54.258;12.574;2023-06-22T14:15:46;29.90;99.90
13598;DHT22;38563;54.258;12.574;2023-06-22T14:18:14;30.10;99.90
13598;DHT22;38563;54.258;12.574;2023-06-22T14:20:41;30.20;99.90
13598;DHT22;38563;54.258;12.574;2023-06-22T14:23:08;29.90;99.90
13598;DHT22;38563;54.258;12.574;2023-06-22T14:25:36;29.80;99.90
13598;DHT22;38563;54.258;12.574;2023-06-22T14:28:03;30.00;99.90
13598;DHT22;38563;54.258;12.574;2023-06-22T14:30:30;30.30;99.90
13598;DHT22;38563;54.258;12.574;2023-06-22T14:32:57;30.80;99.90
13598;DHT22;38563;54.258;12.574;2023-06-22T14:35:23;31.00;99.90
13598;DHT22;38563;54.258;12.574;2023-06-22T14:37:50;30.60;99.90
13598;DHT22;38563;54.258;12.574;2023-06-22T14:40:17;30.50;99.90
13598;DHT22;38563;54.258;12.574;2023-06-22T14:42:45;30.40;99.90
13598;DHT22;38563;54.258;12.574;2023-06-22T14:45:12;30.70;99.90
13598;DHT22;38563;54.258;12.574;2023-06-22T14:47:39;31.30;99.90
13598;DHT22;38563;54.258;12.574;2023-06-22T14:50:06;31.30;99.90
13598;DHT22;38563;54.258;12.574;2023-06-22T14:52:33;30.80;99.90
13598;DHT22;38563;54.258;12.574;2023-06-22T14:55:00;30.40;99.90
13598;DHT22;38563;54.258;12.574;2023-06-22T14:57:26;30.50;99.90
13598;DHT22;38563;54.258;12.574;2023-06-22T14:59:54;29.90;99.90
13598;DHT22;38563;54.258;12.574;2023-06-22T15:02:21;29.70;99.90
13598;DHT22;38563;54.258;12.574;2023-06-22T15:04:48;29.50;99.90
13598;DHT22;38563;54.258;12.574;2023-06-22T15:26:05;29.10;99.90
13598;DHT22;38563;54.258;12.574;2023-06-22T15:28:32;29.90;99.90
13598;DHT22;38563;54.258;12.574;2023-06-22T15:31:00;30.60;99.90
13598;DHT22;38563;54.258;12.574;2023-06-22T15:33:27;30.60;99.90
13598;DHT22;38563;54.258;12.574;2023-06-22T15:35:54;30.90;99.90
13598;DHT22;38563;54.258;12.574;2023-06-22T15:38:21;31.00;99.90
13598;DHT22;38563;54.258;12.574;2023-06-22T15:40:48;30.60;99.90
13598;DHT22;38563;54.258;12.574;2023-06-22T15:43:16;30.40;99.90
13598;DHT22;38563;54.258;12.574;2023-06-22T15:45:42;30.50;99.90